Portada
METAR-TAF:

METAR-TAF

Aeroports :

Blagovésxensk, Rússia

latitud: 50-25-30N, longitud: 127-24-48E, altitud: 195 m

Observació

L'informe es va fer fa 56 minuts, a les 10:00 UTC
Vent calma
Temperatura -14°C
Humitat 85%
Pressió 1018 hPa
Visibilitat: 5000 m
Escasses núvols a una alçada de 3300 ft
calitja

METAR: UHBB 151000Z 00000MPS 5000 HZ FEW033 M14/M16 Q1018 R36/090060 NOSIG RMK QFE746/0994

Hora: 19:56 (10:56 UTC)

Pronòstic

L'informe es va fer fa 3 hores i 6 minuts, a les 07:50 UTC
Pronòstic vàlid del 15 a les 09 UTC al 16 a les 09 UTC
Vent 6 kt del Oest/Nord-Oest
Visibilitat: 5000 m
calitja
A partir de les 15 a les 1500 UTC
Vent 6 kt del Sud
Visibilitat: 3100 m
Cel ennuvolat a una alçada de 2000 ft
calitja
Evolucionant progressivament
l' 16 a les 03 UTC al 16 a les 05 UTC
Vent 6 kt del Oest/Nord-Oest

TAF: UHBB 150750Z 1509/1609 29003MPS 5000 HZ NSC FM151500 19003MPS 3100 HZ BKN020 BECMG 1603/1605 29003MPS

Observacions i pronòstics meteorològics de més de 4000 aeroports (METAR i TAF).

Les estacions disponibles són els punts grocs i vermells al mapa.

Posi el ratolí al punt desitjat per veure el nom de l'estació.

Feu clic per veure les observacions i els pronòstics meteorològics.

Per canviar el mapa: feu clic els botons verds amb una creu de color negre per apropar; al botó verd amb un guió per allunyar la imatge; o en les fletxes verdes per a mapes adjacents.


METAR-TAF: